createdAt,value
2017-12-16T00:00:28.858Z,988.67
2017-12-16T00:01:09.415Z,988.64
2017-12-16T00:01:49.938Z,988.63
2017-12-16T00:02:30.451Z,988.68
2017-12-16T00:03:11.051Z,988.71
2017-12-16T00:03:51.601Z,988.66
2017-12-16T00:04:32.210Z,988.71
2017-12-16T00:05:12.735Z,988.72
2017-12-16T00:05:53.284Z,988.74
2017-12-16T00:06:33.912Z,988.77
2017-12-16T00:07:14.433Z,988.75
2017-12-16T00:07:55.029Z,988.72
2017-12-16T00:08:35.802Z,988.74
2017-12-16T00:09:16.390Z,988.77
2017-12-16T00:09:56.801Z,988.8
2017-12-16T00:10:37.410Z,988.78
2017-12-16T00:11:18.027Z,988.77
2017-12-16T00:11:58.507Z,988.8
2017-12-16T00:12:39.121Z,988.8
2017-12-16T00:13:19.700Z,988.86
2017-12-16T00:14:00.278Z,988.88
2017-12-16T00:14:40.853Z,988.86
2017-12-16T00:15:21.492Z,988.86
2017-12-16T00:16:02.031Z,988.9
2017-12-16T00:16:42.527Z,988.92
2017-12-16T00:17:23.247Z,988.82
2017-12-16T00:18:03.840Z,988.89
2017-12-16T00:18:44.416Z,988.9
2017-12-16T00:19:25.080Z,988.88
2017-12-16T00:20:05.688Z,988.88
2017-12-16T00:20:46.362Z,988.89
2017-12-16T00:21:27.000Z,988.95
2017-12-16T00:22:07.718Z,988.92
2017-12-16T00:22:48.252Z,988.91
2017-12-16T00:23:28.850Z,988.95
2017-12-16T00:24:09.358Z,988.97
2017-12-16T00:24:49.891Z,988.96
2017-12-16T00:25:30.435Z,988.98
2017-12-16T00:26:11.003Z,988.97
2017-12-16T00:26:51.570Z,989.02
2017-12-16T00:27:32.076Z,989
2017-12-16T00:28:12.785Z,989
2017-12-16T00:28:53.214Z,989
2017-12-16T00:29:33.768Z,989.03
2017-12-16T00:30:14.297Z,989
2017-12-16T00:30:54.857Z,989.07
2017-12-16T00:31:35.474Z,989.01
2017-12-16T00:32:16.023Z,989.02
2017-12-16T00:32:56.552Z,989.04
2017-12-16T00:33:37.076Z,989.07
2017-12-16T00:34:17.626Z,989.06
2017-12-16T00:34:58.176Z,989.04
2017-12-16T00:35:38.726Z,989.09
2017-12-16T00:36:19.268Z,989.08
2017-12-16T00:36:59.775Z,989.08
2017-12-16T00:37:40.283Z,989.06
2017-12-16T00:38:20.895Z,989.07
2017-12-16T00:39:01.390Z,989.08
2017-12-16T00:39:42.061Z,989.09
2017-12-16T00:40:22.602Z,989.06
2017-12-16T00:41:03.183Z,989.12
2017-12-16T00:41:43.743Z,989.08
2017-12-16T00:42:24.297Z,989.11
2017-12-16T00:43:04.788Z,989.15
2017-12-16T00:43:45.327Z,989.16
2017-12-16T00:44:25.940Z,989.11
2017-12-16T00:45:06.447Z,989.18
2017-12-16T00:45:47.012Z,989.16
2017-12-16T00:46:28.060Z,989.12
2017-12-16T00:47:08.667Z,989.13
2017-12-16T00:47:49.181Z,989.15
2017-12-16T00:48:29.695Z,989.17
2017-12-16T00:49:10.217Z,989.17
2017-12-16T00:49:50.750Z,989.15
2017-12-16T00:50:31.281Z,989.15
2017-12-16T00:51:11.798Z,989.16
2017-12-16T00:51:52.343Z,989.16
2017-12-16T00:52:32.840Z,989.18
2017-12-16T00:53:13.428Z,989.17
2017-12-16T00:53:53.920Z,989.13
2017-12-16T00:54:34.487Z,989.14
2017-12-16T00:55:15.066Z,989.13
2017-12-16T00:55:55.556Z,989.12
2017-12-16T00:56:36.051Z,989.12
2017-12-16T00:57:16.615Z,989.12
2017-12-16T00:57:57.210Z,989.11
2017-12-16T00:58:37.781Z,989.14
2017-12-16T00:59:18.302Z,989.17
2017-12-16T00:59:58.843Z,989.16
2017-12-16T01:00:39.366Z,989.21
2017-12-16T01:01:19.869Z,989.13
2017-12-16T01:02:00.486Z,989.16
2017-12-16T01:02:41.048Z,989.19
2017-12-16T01:03:21.584Z,989.2
2017-12-16T01:04:02.143Z,989.22
2017-12-16T01:04:42.667Z,989.26
2017-12-16T01:05:23.201Z,989.26
2017-12-16T01:06:03.786Z,989.28
2017-12-16T01:06:44.291Z,989.28
2017-12-16T01:07:24.868Z,989.29
2017-12-16T01:08:05.382Z,989.27
2017-12-16T01:08:45.957Z,989.29
2017-12-16T01:09:26.495Z,989.31
2017-12-16T01:10:07.069Z,989.3
2017-12-16T01:10:47.687Z,989.27
2017-12-16T01:11:28.179Z,989.34
2017-12-16T01:12:08.678Z,989.33
2017-12-16T01:12:49.270Z,989.34
2017-12-16T01:13:29.757Z,989.4
2017-12-16T01:14:10.301Z,989.34
2017-12-16T01:14:50.834Z,989.38
2017-12-16T01:15:31.386Z,989.4
2017-12-16T01:16:11.909Z,989.39
2017-12-16T01:16:52.478Z,989.39
2017-12-16T01:17:33.041Z,989.42
2017-12-16T01:18:13.526Z,989.4
2017-12-16T01:18:54.093Z,989.4
2017-12-16T01:19:34.620Z,989.42
2017-12-16T01:20:15.168Z,989.42
2017-12-16T01:20:55.710Z,989.45
2017-12-16T01:21:36.317Z,989.44
2017-12-16T01:22:16.814Z,989.46
2017-12-16T01:22:57.350Z,989.46
2017-12-16T01:23:37.870Z,989.44
2017-12-16T01:24:18.455Z,989.42
2017-12-16T01:24:58.989Z,989.44
2017-12-16T01:25:39.522Z,989.39
2017-12-16T01:26:20.082Z,989.42
2017-12-16T01:27:00.647Z,989.45
2017-12-16T01:27:41.251Z,989.46
2017-12-16T01:28:21.868Z,989.48
2017-12-16T01:29:02.435Z,989.44
2017-12-16T01:29:43.010Z,989.48
2017-12-16T01:30:23.558Z,989.48
2017-12-16T01:31:04.109Z,989.53
2017-12-16T01:31:44.771Z,989.52
2017-12-16T01:32:25.286Z,989.54
2017-12-16T01:33:05.912Z,989.5
2017-12-16T01:33:46.419Z,989.54
2017-12-16T01:34:26.957Z,989.61
2017-12-16T01:35:07.486Z,989.6
2017-12-16T01:35:47.995Z,989.55
2017-12-16T01:36:28.574Z,989.57
2017-12-16T01:37:09.167Z,989.61
2017-12-16T01:37:49.771Z,989.63
2017-12-16T01:38:30.328Z,989.57
2017-12-16T01:39:10.838Z,989.64
2017-12-16T01:39:51.400Z,989.61
2017-12-16T01:40:32.010Z,989.65
2017-12-16T01:41:12.545Z,989.64
2017-12-16T01:41:53.114Z,989.65
2017-12-16T01:42:33.721Z,989.7
2017-12-16T01:43:14.345Z,989.64
2017-12-16T01:43:54.875Z,989.71
2017-12-16T01:44:35.407Z,989.65
2017-12-16T01:45:15.907Z,989.74
2017-12-16T01:45:57.229Z,989.71
2017-12-16T01:46:37.891Z,989.73
2017-12-16T01:47:18.405Z,989.69
2017-12-16T01:47:58.905Z,989.75
2017-12-16T01:48:39.439Z,989.73
2017-12-16T01:49:20.008Z,989.76
2017-12-16T01:50:00.575Z,989.79
2017-12-16T01:50:41.171Z,989.79
2017-12-16T01:51:21.661Z,989.82
2017-12-16T01:52:02.268Z,989.84
2017-12-16T01:52:42.813Z,989.83
2017-12-16T01:53:23.403Z,989.85
2017-12-16T01:54:03.950Z,989.84
2017-12-16T01:54:44.643Z,989.89
2017-12-16T01:55:25.372Z,989.89
2017-12-16T01:56:05.860Z,989.88
2017-12-16T01:56:46.454Z,989.91
2017-12-16T01:57:27.038Z,989.91
2017-12-16T01:58:07.785Z,989.97
2017-12-16T01:58:48.370Z,989.99
2017-12-16T01:59:29.176Z,989.97
2017-12-16T02:00:09.631Z,990.01
2017-12-16T02:00:50.308Z,989.97
2017-12-16T02:01:30.744Z,990.01
2017-12-16T02:02:11.363Z,989.99
2017-12-16T02:02:52.067Z,990
2017-12-16T02:03:32.944Z,990.01
2017-12-16T02:04:13.628Z,990.06
2017-12-16T02:04:54.233Z,990.03
2017-12-16T02:05:34.781Z,990
2017-12-16T02:06:15.382Z,990
2017-12-16T02:06:56.052Z,990.03
2017-12-16T02:07:36.541Z,990
2017-12-16T02:08:17.138Z,990.03
2017-12-16T02:08:57.731Z,990.05
2017-12-16T02:09:38.234Z,990.07
2017-12-16T02:10:18.863Z,990.02
2017-12-16T02:10:59.510Z,990.04
2017-12-16T02:11:40.218Z,990.05
2017-12-16T02:12:20.962Z,990.08
2017-12-16T02:13:01.663Z,990.05
2017-12-16T02:13:42.565Z,990.06
2017-12-16T02:14:23.223Z,990.09
2017-12-16T02:15:03.866Z,990.08
2017-12-16T02:15:44.495Z,990.1
2017-12-16T02:16:24.998Z,990.12
2017-12-16T02:17:05.607Z,990.12
2017-12-16T02:17:46.176Z,990.14
2017-12-16T02:18:26.736Z,990.09
2017-12-16T02:19:07.308Z,990.12
2017-12-16T02:19:47.881Z,990.11
2017-12-16T02:20:28.447Z,990.13
2017-12-16T02:21:08.966Z,990.13
2017-12-16T02:21:49.556Z,990.1
2017-12-16T02:22:30.090Z,990.08
2017-12-16T02:23:10.653Z,990.1
2017-12-16T02:23:51.269Z,990.13
2017-12-16T02:24:31.814Z,990.12
2017-12-16T02:25:12.418Z,990.12
2017-12-16T02:25:52.877Z,990.14
2017-12-16T02:26:33.458Z,990.15
2017-12-16T02:27:14.083Z,990.21
2017-12-16T02:27:54.675Z,990.2
2017-12-16T02:28:35.198Z,990.15
2017-12-16T02:29:15.736Z,990.2
2017-12-16T02:29:56.319Z,990.2
2017-12-16T02:30:36.847Z,990.15
2017-12-16T02:31:17.310Z,990.19
2017-12-16T02:31:57.886Z,990.19
2017-12-16T02:32:38.458Z,990.18
2017-12-16T02:33:19.028Z,990.18
2017-12-16T02:33:59.532Z,990.2
2017-12-16T02:34:40.128Z,990.22
2017-12-16T02:35:20.739Z,990.2
2017-12-16T02:36:01.328Z,990.23
2017-12-16T02:36:41.833Z,990.26
2017-12-16T02:37:22.370Z,990.28
2017-12-16T02:38:02.924Z,990.26
2017-12-16T02:38:43.480Z,990.25
2017-12-16T02:39:24.019Z,990.27
2017-12-16T02:40:04.622Z,990.2
2017-12-16T02:40:45.133Z,990.21
2017-12-16T02:41:25.687Z,990.26
2017-12-16T02:42:06.244Z,990.29
2017-12-16T02:42:46.761Z,990.29
2017-12-16T02:43:27.418Z,990.28
2017-12-16T02:44:08.053Z,990.33
2017-12-16T02:44:48.636Z,990.32
2017-12-16T02:45:29.236Z,990.32
2017-12-16T02:46:09.932Z,990.28
2017-12-16T02:46:50.542Z,990.37
2017-12-16T02:47:31.073Z,990.34
2017-12-16T02:48:11.676Z,990.34
2017-12-16T02:48:52.221Z,990.33
2017-12-16T02:49:32.760Z,990.4
2017-12-16T02:50:13.328Z,990.37
2017-12-16T02:50:53.792Z,990.41
2017-12-16T02:51:34.334Z,990.41
2017-12-16T02:52:14.900Z,990.42
2017-12-16T02:52:55.468Z,990.44
2017-12-16T02:53:35.939Z,990.43
2017-12-16T02:54:16.437Z,990.46
2017-12-16T02:54:57.043Z,990.48
2017-12-16T02:55:37.546Z,990.5
2017-12-16T02:56:18.111Z,990.5
2017-12-16T02:56:58.634Z,990.49
2017-12-16T02:57:39.201Z,990.53
2017-12-16T02:58:19.708Z,990.47
2017-12-16T02:59:00.246Z,990.49
2017-12-16T02:59:40.865Z,990.52
2017-12-16T03:00:21.318Z,990.54
2017-12-16T03:01:01.885Z,990.47
2017-12-16T03:01:42.427Z,990.53
2017-12-16T03:02:22.967Z,990.55
2017-12-16T03:03:03.475Z,990.57
2017-12-16T03:03:44.049Z,990.58
2017-12-16T03:04:24.557Z,990.58
2017-12-16T03:05:05.171Z,990.61
2017-12-16T03:05:45.698Z,990.6
2017-12-16T03:06:26.266Z,990.6
2017-12-16T03:07:06.772Z,990.62
2017-12-16T03:07:47.331Z,990.64
2017-12-16T03:08:27.860Z,990.66
2017-12-16T03:09:08.390Z,990.63
2017-12-16T03:09:48.900Z,990.64
2017-12-16T03:10:29.456Z,990.65
2017-12-16T03:11:09.995Z,990.68
2017-12-16T03:11:50.491Z,990.72
2017-12-16T03:12:31.029Z,990.73
2017-12-16T03:13:11.568Z,990.71
2017-12-16T03:13:52.118Z,990.72
2017-12-16T03:14:32.636Z,990.7
2017-12-16T03:15:13.157Z,990.72
2017-12-16T03:15:53.700Z,990.76
2017-12-16T03:16:34.282Z,990.76
2017-12-16T03:17:14.791Z,990.77
2017-12-16T03:17:55.307Z,990.82
2017-12-16T03:18:35.885Z,990.77
2017-12-16T03:19:16.365Z,990.8
2017-12-16T03:19:56.891Z,990.82
2017-12-16T03:20:37.429Z,990.84
2017-12-16T03:21:17.999Z,990.82
2017-12-16T03:21:58.569Z,990.87
2017-12-16T03:22:39.107Z,990.9
2017-12-16T03:23:19.575Z,990.86
2017-12-16T03:24:00.234Z,990.9
2017-12-16T03:24:40.728Z,990.9
2017-12-16T03:25:21.292Z,990.94
2017-12-16T03:26:01.851Z,990.9
2017-12-16T03:26:42.391Z,990.98
2017-12-16T03:27:22.893Z,990.95
2017-12-16T03:28:03.528Z,990.93
2017-12-16T03:28:44.106Z,991.01
2017-12-16T03:29:24.579Z,990.99
2017-12-16T03:30:05.101Z,990.99
2017-12-16T03:30:45.627Z,990.99
2017-12-16T03:31:26.167Z,991.02
2017-12-16T03:32:06.768Z,991.03
2017-12-16T03:32:47.359Z,991.07
2017-12-16T03:33:27.873Z,991.07
2017-12-16T03:34:08.418Z,991.06
2017-12-16T03:34:48.976Z,991.06
2017-12-16T03:35:29.500Z,991.03
2017-12-16T03:36:10.031Z,991.1
2017-12-16T03:36:50.542Z,991.13
2017-12-16T03:37:31.086Z,991.09
2017-12-16T03:38:11.610Z,991.13
2017-12-16T03:38:52.160Z,991.12
2017-12-16T03:39:32.778Z,991.17
2017-12-16T03:40:13.251Z,991.18
2017-12-16T03:40:53.866Z,991.12
2017-12-16T03:41:34.389Z,991.14
2017-12-16T03:42:14.938Z,991.18
2017-12-16T03:42:55.498Z,991.14
2017-12-16T03:43:36.029Z,991.15
2017-12-16T03:44:16.541Z,991.21
2017-12-16T03:44:57.043Z,991.19
2017-12-16T03:45:37.621Z,991.19
2017-12-16T03:46:18.130Z,991.2
2017-12-16T03:46:58.670Z,991.23
2017-12-16T03:47:39.232Z,991.21
2017-12-16T03:48:19.777Z,991.28
2017-12-16T03:49:00.288Z,991.28
2017-12-16T03:49:40.873Z,991.27
2017-12-16T03:50:21.369Z,991.28
2017-12-16T03:51:01.977Z,991.32
2017-12-16T03:51:42.441Z,991.37
2017-12-16T03:52:22.997Z,991.34
2017-12-16T03:53:03.523Z,991.34
2017-12-16T03:53:44.076Z,991.32
2017-12-16T03:54:24.687Z,991.38
2017-12-16T03:55:05.252Z,991.36
2017-12-16T03:55:45.746Z,991.38
2017-12-16T03:56:26.294Z,991.3
2017-12-16T03:57:06.823Z,991.31
2017-12-16T03:57:47.375Z,991.35
2017-12-16T03:58:27.919Z,991.33
2017-12-16T03:59:08.426Z,991.36
2017-12-16T03:59:48.927Z,991.38
2017-12-16T04:00:29.436Z,991.42
2017-12-16T04:01:10.094Z,991.46
2017-12-16T04:01:50.702Z,991.41
2017-12-16T04:02:31.253Z,991.51
2017-12-16T04:03:12.036Z,991.49
2017-12-16T04:03:52.649Z,991.51
2017-12-16T04:04:33.112Z,991.5
2017-12-16T04:05:13.752Z,991.48
2017-12-16T04:05:54.289Z,991.54
2017-12-16T04:06:34.862Z,991.51
2017-12-16T04:07:15.365Z,991.52
2017-12-16T04:07:55.914Z,991.55
2017-12-16T04:08:36.467Z,991.57
2017-12-16T04:09:17.023Z,991.55
2017-12-16T04:09:57.596Z,991.6
2017-12-16T04:10:38.135Z,991.6
2017-12-16T04:11:18.628Z,991.53
2017-12-16T04:11:59.290Z,991.58
2017-12-16T04:12:39.854Z,991.59
2017-12-16T04:13:20.358Z,991.53
2017-12-16T04:14:00.930Z,991.55
2017-12-16T04:14:41.416Z,991.61
2017-12-16T04:15:21.982Z,991.59
2017-12-16T04:16:02.491Z,991.62
2017-12-16T04:16:43.061Z,991.66
2017-12-16T04:17:23.539Z,991.64
2017-12-16T04:18:04.107Z,991.64
2017-12-16T04:18:44.701Z,991.67
2017-12-16T04:19:25.226Z,991.66
2017-12-16T04:20:05.751Z,991.71
2017-12-16T04:20:46.274Z,991.73
2017-12-16T04:21:26.852Z,991.68
2017-12-16T04:22:07.367Z,991.69
2017-12-16T04:22:48.814Z,991.69
2017-12-16T04:23:29.378Z,991.75
2017-12-16T04:24:09.947Z,991.69
2017-12-16T04:24:50.479Z,991.66
2017-12-16T04:25:31.076Z,991.74
2017-12-16T04:26:11.584Z,991.72
2017-12-16T04:26:52.221Z,991.71
2017-12-16T04:27:32.780Z,991.75
2017-12-16T04:28:13.300Z,991.73
2017-12-16T04:28:53.811Z,991.75
2017-12-16T04:29:34.360Z,991.77
2017-12-16T04:30:14.924Z,991.76
2017-12-16T04:30:55.493Z,991.81
2017-12-16T04:31:36.062Z,991.78
2017-12-16T04:32:16.676Z,991.82
2017-12-16T04:32:57.163Z,991.79
2017-12-16T04:33:37.709Z,991.86
2017-12-16T04:34:18.359Z,991.86
2017-12-16T04:34:58.920Z,991.85
2017-12-16T04:35:39.996Z,991.89
2017-12-16T04:36:20.512Z,991.92
2017-12-16T04:37:01.080Z,991.94
2017-12-16T04:37:41.626Z,991.95
2017-12-16T04:38:22.132Z,991.95
2017-12-16T04:39:02.721Z,991.96
2017-12-16T04:39:43.324Z,991.93
2017-12-16T04:40:23.841Z,991.96
2017-12-16T04:41:04.378Z,991.98
2017-12-16T04:41:44.918Z,991.94
2017-12-16T04:42:25.462Z,991.91
2017-12-16T04:43:06.235Z,992
2017-12-16T04:43:47.018Z,991.97
2017-12-16T04:44:27.779Z,992
2017-12-16T04:45:08.429Z,992.01
2017-12-16T04:45:49.003Z,991.99
2017-12-16T04:46:29.518Z,992
2017-12-16T04:47:10.019Z,992.01
2017-12-16T04:47:50.553Z,992.04
2017-12-16T04:48:31.090Z,992.07
2017-12-16T04:49:11.827Z,992.09
2017-12-16T04:49:52.479Z,992.13
2017-12-16T04:50:33.056Z,992.07
2017-12-16T04:51:13.650Z,992.07
2017-12-16T04:51:54.176Z,992.11
2017-12-16T04:52:34.708Z,992.07
2017-12-16T04:53:15.273Z,992.04
2017-12-16T04:53:55.829Z,992.09
2017-12-16T04:54:36.383Z,992.06
2017-12-16T04:55:17.098Z,992.08
2017-12-16T04:55:57.834Z,992.09
2017-12-16T04:56:38.616Z,992.07
2017-12-16T04:57:19.373Z,992.07
2017-12-16T04:58:00.116Z,992.12
2017-12-16T04:58:40.797Z,992.15
2017-12-16T04:59:21.405Z,992.12
2017-12-16T05:00:02.188Z,992.19
2017-12-16T05:00:42.585Z,992.16
2017-12-16T05:01:23.160Z,992.22
2017-12-16T05:02:03.662Z,992.23
2017-12-16T05:02:44.244Z,992.23
2017-12-16T05:03:24.762Z,992.24
2017-12-16T05:04:05.292Z,992.31
2017-12-16T05:04:45.845Z,992.35
2017-12-16T05:05:26.368Z,992.35
2017-12-16T05:06:06.855Z,992.37
2017-12-16T05:06:47.474Z,992.36
2017-12-16T05:07:28.020Z,992.41
2017-12-16T05:08:08.558Z,992.4
2017-12-16T05:08:49.106Z,992.4
2017-12-16T05:09:29.643Z,992.46
2017-12-16T05:10:10.107Z,992.43
2017-12-16T05:10:50.686Z,992.45
2017-12-16T05:11:31.226Z,992.46
2017-12-16T05:12:11.742Z,992.46
2017-12-16T05:12:52.325Z,992.48
2017-12-16T05:13:32.874Z,992.49
2017-12-16T05:14:13.430Z,992.49
2017-12-16T05:14:53.924Z,992.5
2017-12-16T05:15:34.467Z,992.53
2017-12-16T05:16:14.964Z,992.5
2017-12-16T05:16:55.521Z,992.53
2017-12-16T05:17:36.059Z,992.53
2017-12-16T05:18:16.612Z,992.56
2017-12-16T05:18:57.099Z,992.56
2017-12-16T05:19:37.664Z,992.55
2017-12-16T05:20:18.215Z,992.55
2017-12-16T05:20:58.722Z,992.57
2017-12-16T05:21:39.283Z,992.56
2017-12-16T05:22:20.701Z,992.57
2017-12-16T05:23:01.215Z,992.62
2017-12-16T05:23:41.778Z,992.6
2017-12-16T05:24:22.296Z,992.62
2017-12-16T05:25:02.875Z,992.64
2017-12-16T05:25:43.427Z,992.68
2017-12-16T05:26:24.085Z,992.61
2017-12-16T05:27:04.630Z,992.6
2017-12-16T05:27:46.012Z,992.65
2017-12-16T05:28:26.628Z,992.69
2017-12-16T05:29:07.155Z,992.67
2017-12-16T05:29:47.803Z,992.67
2017-12-16T05:30:28.525Z,992.7
2017-12-16T05:31:09.051Z,992.68
2017-12-16T05:31:49.665Z,992.71
2017-12-16T05:32:30.238Z,992.69
2017-12-16T05:33:10.900Z,992.75
2017-12-16T05:33:51.653Z,992.73
2017-12-16T05:34:32.184Z,992.76
2017-12-16T05:35:12.773Z,992.72
2017-12-16T05:35:53.394Z,992.77
2017-12-16T05:36:34.020Z,992.74
2017-12-16T05:37:14.793Z,992.79
2017-12-16T05:37:55.551Z,992.76
2017-12-16T05:38:36.146Z,992.79
2017-12-16T05:39:16.703Z,992.8
2017-12-16T05:39:58.268Z,992.8
2017-12-16T05:40:38.820Z,992.79
2017-12-16T05:41:19.680Z,992.83
2017-12-16T05:42:00.172Z,992.86
2017-12-16T05:42:40.727Z,992.91
2017-12-16T05:43:21.339Z,992.87
2017-12-16T05:44:01.912Z,992.9
2017-12-16T05:44:42.498Z,992.91
2017-12-16T05:45:23.044Z,992.96
2017-12-16T05:46:03.607Z,992.95
2017-12-16T05:46:44.216Z,992.95
2017-12-16T05:47:24.809Z,992.92
2017-12-16T05:48:05.419Z,992.93
2017-12-16T05:48:45.999Z,992.95
2017-12-16T05:49:26.645Z,992.95
2017-12-16T05:50:07.175Z,992.98
2017-12-16T05:50:47.847Z,993.01
2017-12-16T05:51:28.420Z,992.97
2017-12-16T05:52:08.987Z,993.05
2017-12-16T05:52:49.668Z,993.03
2017-12-16T05:53:30.087Z,993.04
2017-12-16T05:54:10.666Z,993.09
2017-12-16T05:54:51.387Z,993.05
2017-12-16T05:55:32.090Z,993.09
2017-12-16T05:56:12.718Z,993.07
2017-12-16T05:56:53.388Z,993.1
2017-12-16T05:57:34.056Z,993.16
2017-12-16T05:58:14.574Z,993.14
2017-12-16T05:58:55.288Z,993.14
2017-12-16T05:59:35.884Z,993.17
2017-12-16T06:00:16.561Z,993.15
2017-12-16T06:00:57.091Z,993.21
2017-12-16T06:01:37.665Z,993.18
2017-12-16T06:02:18.225Z,993.24
2017-12-16T06:02:58.848Z,993.27
2017-12-16T06:03:39.551Z,993.24
2017-12-16T06:04:20.243Z,993.28
2017-12-16T06:05:00.763Z,993.29
2017-12-16T06:05:41.355Z,993.27
2017-12-16T06:06:22.015Z,993.32
2017-12-16T06:07:02.592Z,993.32
2017-12-16T06:07:43.306Z,993.36
2017-12-16T06:08:23.917Z,993.35
2017-12-16T06:09:04.634Z,993.34
2017-12-16T06:09:45.373Z,993.39
2017-12-16T06:10:26.012Z,993.37
2017-12-16T06:11:06.484Z,993.45
2017-12-16T06:11:47.153Z,993.41
2017-12-16T06:12:27.680Z,993.44
2017-12-16T06:13:08.250Z,993.44
2017-12-16T06:13:48.961Z,993.4
2017-12-16T06:14:29.556Z,993.43
2017-12-16T06:15:10.065Z,993.41
2017-12-16T06:15:51.453Z,993.42
2017-12-16T06:16:32.066Z,993.45
2017-12-16T06:17:12.697Z,993.41
2017-12-16T06:17:53.316Z,993.46
2017-12-16T06:18:34.044Z,993.45
2017-12-16T06:19:14.678Z,993.46
2017-12-16T06:19:55.163Z,993.46
2017-12-16T06:20:35.692Z,993.51
2017-12-16T06:21:16.270Z,993.49
2017-12-16T06:21:56.795Z,993.5
2017-12-16T06:22:37.354Z,993.52
2017-12-16T06:23:17.985Z,993.54
2017-12-16T06:23:58.921Z,993.55
2017-12-16T06:24:39.514Z,993.56
2017-12-16T06:25:20.031Z,993.53
2017-12-16T06:26:00.550Z,993.58
2017-12-16T06:26:41.099Z,993.64
2017-12-16T06:27:21.591Z,993.67
2017-12-16T06:28:02.180Z,993.65
2017-12-16T06:28:42.754Z,993.69
2017-12-16T06:29:23.257Z,993.68
2017-12-16T06:30:03.766Z,993.69
2017-12-16T06:30:44.343Z,993.75
2017-12-16T06:31:24.898Z,993.73
2017-12-16T06:32:05.542Z,993.74
2017-12-16T06:32:46.169Z,993.68
2017-12-16T06:33:26.704Z,993.77
2017-12-16T06:34:08.973Z,993.72
2017-12-16T06:34:49.506Z,993.76
2017-12-16T06:35:30.029Z,993.75
2017-12-16T06:36:10.545Z,993.77
2017-12-16T06:36:51.068Z,993.8
2017-12-16T06:37:31.643Z,993.81
2017-12-16T06:38:12.214Z,993.81
2017-12-16T06:38:52.727Z,993.89
2017-12-16T06:39:33.320Z,993.85
2017-12-16T06:40:13.932Z,993.86
2017-12-16T06:40:54.454Z,993.86
2017-12-16T06:41:35.086Z,993.89
2017-12-16T06:42:15.668Z,993.91
2017-12-16T06:42:56.375Z,993.89
2017-12-16T06:43:36.899Z,993.9
2017-12-16T06:44:17.439Z,993.95
2017-12-16T06:44:57.980Z,993.98
2017-12-16T06:45:38.541Z,993.97
2017-12-16T06:46:19.188Z,993.99
2017-12-16T06:46:59.711Z,993.99
2017-12-16T06:47:40.235Z,994.03
2017-12-16T06:48:20.794Z,994.02
2017-12-16T06:49:01.386Z,994.03
2017-12-16T06:49:41.928Z,994.05
2017-12-16T06:50:23.850Z,994.02
2017-12-16T06:51:04.384Z,994.08
2017-12-16T06:51:45.366Z,994.1
2017-12-16T06:52:25.872Z,994.13
2017-12-16T06:53:06.426Z,994.18
2017-12-16T06:53:46.984Z,994.19
2017-12-16T06:54:27.528Z,994.23
2017-12-16T06:55:08.084Z,994.25
2017-12-16T06:55:48.580Z,994.22
2017-12-16T06:56:29.138Z,994.29
2017-12-16T06:57:09.740Z,994.2
2017-12-16T06:57:50.674Z,994.22
2017-12-16T06:58:31.183Z,994.28
2017-12-16T06:59:11.718Z,994.29
2017-12-16T06:59:52.229Z,994.28
2017-12-16T07:00:32.782Z,994.32
2017-12-16T07:01:13.320Z,994.34
2017-12-16T07:01:53.851Z,994.33
2017-12-16T07:02:34.375Z,994.33
2017-12-16T07:03:15.569Z,994.38
2017-12-16T07:03:56.083Z,994.39
2017-12-16T07:04:36.654Z,994.44
2017-12-16T07:05:17.187Z,994.44
2017-12-16T07:05:57.715Z,994.41
2017-12-16T07:06:38.315Z,994.43
2017-12-16T07:07:18.874Z,994.51
2017-12-16T07:07:59.446Z,994.54
2017-12-16T07:08:40.010Z,994.52
2017-12-16T07:09:20.566Z,994.54
2017-12-16T07:10:01.073Z,994.58
2017-12-16T07:10:41.635Z,994.53
2017-12-16T07:11:22.197Z,994.62
2017-12-16T07:12:02.724Z,994.56
2017-12-16T07:12:43.278Z,994.62
2017-12-16T07:13:23.813Z,994.61
2017-12-16T07:14:04.354Z,994.61
2017-12-16T07:14:44.871Z,994.71
2017-12-16T07:15:25.462Z,994.67
2017-12-16T07:16:05.993Z,994.69
2017-12-16T07:16:46.566Z,994.71
2017-12-16T07:17:27.218Z,994.75
2017-12-16T07:18:07.719Z,994.75
2017-12-16T07:18:48.274Z,994.73
2017-12-16T07:19:28.858Z,994.77
2017-12-16T07:20:13.239Z,994.81
2017-12-16T07:20:53.756Z,994.84
2017-12-16T07:21:34.293Z,994.8
2017-12-16T07:22:18.643Z,994.84
2017-12-16T07:22:59.237Z,994.84
2017-12-16T07:23:39.748Z,994.89
2017-12-16T07:24:20.304Z,994.89
2017-12-16T07:25:00.865Z,994.91
2017-12-16T07:25:41.372Z,994.9
2017-12-16T07:26:21.924Z,994.94
2017-12-16T07:27:02.442Z,994.91
2017-12-16T07:27:44.151Z,995
2017-12-16T07:28:24.658Z,994.99
2017-12-16T07:29:05.246Z,995.01
2017-12-16T07:29:45.814Z,995.01
2017-12-16T07:30:26.355Z,995.01
2017-12-16T07:31:06.864Z,995.07
2017-12-16T07:31:47.406Z,995.05
2017-12-16T07:32:27.975Z,994.99
2017-12-16T07:33:08.516Z,995.02
2017-12-16T07:33:49.023Z,995.04
2017-12-16T07:34:31.076Z,995.08
2017-12-16T07:35:11.606Z,995.1
2017-12-16T07:35:52.103Z,995.12
2017-12-16T07:36:32.628Z,995.1
2017-12-16T07:37:13.656Z,995.11
2017-12-16T07:37:58.152Z,995.15
2017-12-16T07:38:38.678Z,995.15
2017-12-16T07:39:19.609Z,995.15
2017-12-16T07:40:03.119Z,995.19
2017-12-16T07:40:49.951Z,995.15
2017-12-16T07:43:24.719Z,995.28
2017-12-16T07:45:24.038Z,995.36
2017-12-16T07:46:04.886Z,995.38
2017-12-16T07:46:45.391Z,995.36
2017-12-16T07:47:25.906Z,995.41
2017-12-16T07:48:06.583Z,995.42
2017-12-16T07:48:51.699Z,995.4
2017-12-16T07:49:50.706Z,995.49
2017-12-16T07:50:36.274Z,995.47
2017-12-16T07:51:23.475Z,995.46
2017-12-16T07:52:04.434Z,995.48
2017-12-16T07:52:45.337Z,995.53
2017-12-16T07:53:27.005Z,995.55
2017-12-16T07:54:07.670Z,995.49
2017-12-16T07:54:48.170Z,995.52
2017-12-16T07:55:30.332Z,995.51
2017-12-16T07:56:11.002Z,995.51
2017-12-16T07:56:51.818Z,995.56
2017-12-16T07:57:32.360Z,995.53
2017-12-16T07:58:12.849Z,995.58
2017-12-16T07:58:53.371Z,995.58
2017-12-16T07:59:53.784Z,995.57
2017-12-16T08:01:38.873Z,995.63
2017-12-16T08:02:19.677Z,995.67
2017-12-16T08:03:00.233Z,995.65
2017-12-16T08:03:40.790Z,995.68
2017-12-16T08:04:21.953Z,995.71
2017-12-16T08:05:03.676Z,995.67
2017-12-16T08:05:43.185Z,995.7
2017-12-16T08:06:26.601Z,995.72
2017-12-16T08:07:11.153Z,995.71
2017-12-16T08:07:51.634Z,995.76
2017-12-16T08:08:32.183Z,995.78
2017-12-16T08:09:13.014Z,995.78
2017-12-16T08:09:53.540Z,995.81
2017-12-16T08:10:34.413Z,995.83
2017-12-16T08:11:15.686Z,995.79
2017-12-16T08:11:56.270Z,995.8
2017-12-16T08:12:36.878Z,995.87
2017-12-16T08:13:17.538Z,995.87
2017-12-16T08:13:58.077Z,995.88
2017-12-16T08:14:39.368Z,995.87
2017-12-16T08:15:19.829Z,995.87
2017-12-16T08:16:00.466Z,995.92
2017-12-16T08:16:42.228Z,995.92
2017-12-16T08:17:22.806Z,995.9
2017-12-16T08:18:03.301Z,995.91
2017-12-16T08:18:43.871Z,995.94
2017-12-16T08:19:24.991Z,995.93
2017-12-16T08:20:09.480Z,995.96
2017-12-16T08:20:50.608Z,996
2017-12-16T08:21:31.139Z,996.02
2017-12-16T08:22:11.677Z,996
2017-12-16T08:22:52.374Z,996.01
2017-12-16T08:23:32.774Z,996.03
2017-12-16T08:24:13.276Z,996.03
2017-12-16T08:24:53.895Z,996
2017-12-16T08:26:58.369Z,996.12
2017-12-16T08:27:38.975Z,996.08
2017-12-16T08:28:19.458Z,996.16
2017-12-16T08:29:00.039Z,996.15
2017-12-16T08:29:40.618Z,996.12
2017-12-16T08:30:21.153Z,996.19
2017-12-16T08:31:01.698Z,996.2
2017-12-16T08:31:42.255Z,996.21
2017-12-16T08:32:22.804Z,996.22
2017-12-16T08:33:03.310Z,996.22
2017-12-16T08:33:43.865Z,996.27
2017-12-16T08:34:24.460Z,996.26
2017-12-16T08:35:05.012Z,996.32
2017-12-16T08:35:45.601Z,996.34